sensor_id;sensor_type;location;lat;lon;timestamp;P1;durP1;ratioP1;P2;durP2;ratioP2
51475;SDS011;37554;50.362;7.568;2023-05-29T00:01:40;4.68;;;3.55;;
51475;SDS011;37554;50.362;7.568;2023-05-29T00:04:06;3.25;;;2.95;;
51475;SDS011;37554;50.362;7.568;2023-05-29T00:06:31;3.30;;;3.00;;
51475;SDS011;37554;50.362;7.568;2023-05-29T00:08:57;3.10;;;2.80;;
51475;SDS011;37554;50.362;7.568;2023-05-29T00:11:22;2.70;;;2.50;;
51475;SDS011;37554;50.362;7.568;2023-05-29T00:13:48;4.05;;;2.80;;
51475;SDS011;37554;50.362;7.568;2023-05-29T00:16:14;3.33;;;2.72;;
51475;SDS011;37554;50.362;7.568;2023-05-29T00:18:40;2.88;;;2.58;;
51475;SDS011;37554;50.362;7.568;2023-05-29T00:21:10;4.18;;;2.95;;
51475;SDS011;37554;50.362;7.568;2023-05-29T00:23:37;2.80;;;2.55;;
51475;SDS011;37554;50.362;7.568;2023-05-29T00:26:03;5.20;;;3.03;;
51475;SDS011;37554;50.362;7.568;2023-05-29T00:28:28;3.08;;;2.78;;
51475;SDS011;37554;50.362;7.568;2023-05-29T00:30:54;3.17;;;2.88;;
51475;SDS011;37554;50.362;7.568;2023-05-29T00:33:20;3.22;;;2.53;;
51475;SDS011;37554;50.362;7.568;2023-05-29T00:35:45;3.45;;;3.00;;
51475;SDS011;37554;50.362;7.568;2023-05-29T00:38:11;3.33;;;3.03;;
51475;SDS011;37554;50.362;7.568;2023-05-29T00:40:37;3.05;;;2.60;;
51475;SDS011;37554;50.362;7.568;2023-05-29T00:43:04;3.17;;;2.88;;
51475;SDS011;37554;50.362;7.568;2023-05-29T00:45:30;3.15;;;2.72;;
51475;SDS011;37554;50.362;7.568;2023-05-29T00:47:57;4.80;;;2.75;;
51475;SDS011;37554;50.362;7.568;2023-05-29T00:50:23;3.65;;;3.03;;
51475;SDS011;37554;50.362;7.568;2023-05-29T00:52:48;2.95;;;2.63;;
51475;SDS011;37554;50.362;7.568;2023-05-29T00:55:15;3.33;;;2.97;;
51475;SDS011;37554;50.362;7.568;2023-05-29T00:57:41;3.25;;;2.95;;
51475;SDS011;37554;50.362;7.568;2023-05-29T01:00:07;3.80;;;2.83;;
51475;SDS011;37554;50.362;7.568;2023-05-29T01:02:38;2.97;;;2.65;;
51475;SDS011;37554;50.362;7.568;2023-05-29T01:05:05;2.80;;;2.60;;
51475;SDS011;37554;50.362;7.568;2023-05-29T01:07:32;3.25;;;2.95;;
51475;SDS011;37554;50.362;7.568;2023-05-29T01:09:58;3.15;;;2.65;;
51475;SDS011;37554;50.362;7.568;2023-05-29T01:15:03;2.65;;;2.22;;
51475;SDS011;37554;50.362;7.568;2023-05-29T01:25:23;4.80;;;2.75;;
51475;SDS011;37554;50.362;7.568;2023-05-29T01:27:56;2.75;;;2.50;;
51475;SDS011;37554;50.362;7.568;2023-05-29T01:30:25;2.80;;;2.50;;
51475;SDS011;37554;50.362;7.568;2023-05-29T01:32:54;5.03;;;2.72;;
51475;SDS011;37554;50.362;7.568;2023-05-29T01:35:20;3.08;;;2.40;;
51475;SDS011;37554;50.362;7.568;2023-05-29T01:37:45;3.30;;;2.47;;
51475;SDS011;37554;50.362;7.568;2023-05-29T01:40:11;3.55;;;2.67;;
51475;SDS011;37554;50.362;7.568;2023-05-29T01:42:37;2.70;;;2.50;;
51475;SDS011;37554;50.362;7.568;2023-05-29T01:45:05;2.72;;;2.53;;
51475;SDS011;37554;50.362;7.568;2023-05-29T01:47:31;2.97;;;2.50;;
51475;SDS011;37554;50.362;7.568;2023-05-29T01:49:58;3.20;;;2.83;;
51475;SDS011;37554;50.362;7.568;2023-05-29T01:52:24;2.75;;;2.28;;
51475;SDS011;37554;50.362;7.568;2023-05-29T01:54:50;3.08;;;2.78;;
51475;SDS011;37554;50.362;7.568;2023-05-29T01:57:16;2.33;;;2.13;;
51475;SDS011;37554;50.362;7.568;2023-05-29T01:59:42;2.50;;;2.30;;
51475;SDS011;37554;50.362;7.568;2023-05-29T02:02:08;2.58;;;2.38;;
51475;SDS011;37554;50.362;7.568;2023-05-29T02:04:34;3.33;;;2.60;;
51475;SDS011;37554;50.362;7.568;2023-05-29T02:07:00;2.97;;;2.50;;
51475;SDS011;37554;50.362;7.568;2023-05-29T02:09:25;2.92;;;2.10;;
51475;SDS011;37554;50.362;7.568;2023-05-29T02:11:51;2.50;;;2.30;;
51475;SDS011;37554;50.362;7.568;2023-05-29T02:14:17;3.42;;;2.60;;
51475;SDS011;37554;50.362;7.568;2023-05-29T02:16:43;2.53;;;2.33;;
51475;SDS011;37554;50.362;7.568;2023-05-29T02:19:09;2.80;;;2.50;;
51475;SDS011;37554;50.362;7.568;2023-05-29T02:21:38;4.95;;;2.58;;
51475;SDS011;37554;50.362;7.568;2023-05-29T02:24:05;2.42;;;2.20;;
51475;SDS011;37554;50.362;7.568;2023-05-29T02:26:32;2.80;;;2.30;;
51475;SDS011;37554;50.362;7.568;2023-05-29T02:28:57;2.63;;;2.25;;
51475;SDS011;37554;50.362;7.568;2023-05-29T02:31:23;2.22;;;2.03;;
51475;SDS011;37554;50.362;7.568;2023-05-29T02:33:49;3.53;;;2.38;;
51475;SDS011;37554;50.362;7.568;2023-05-29T02:36:14;2.92;;;2.33;;
51475;SDS011;37554;50.362;7.568;2023-05-29T02:38:41;2.40;;;2.20;;
51475;SDS011;37554;50.362;7.568;2023-05-29T02:41:07;2.80;;;2.53;;
51475;SDS011;37554;50.362;7.568;2023-05-29T02:43:32;3.08;;;2.22;;
51475;SDS011;37554;50.362;7.568;2023-05-29T02:45:58;3.38;;;2.10;;
51475;SDS011;37554;50.362;7.568;2023-05-29T02:48:24;1.98;;;1.88;;
51475;SDS011;37554;50.362;7.568;2023-05-29T02:50:51;2.35;;;2.15;;
51475;SDS011;37554;50.362;7.568;2023-05-29T02:53:16;2.53;;;2.10;;
51475;SDS011;37554;50.362;7.568;2023-05-29T02:55:42;2.53;;;2.13;;
51475;SDS011;37554;50.362;7.568;2023-05-29T02:58:07;2.42;;;2.22;;
51475;SDS011;37554;50.362;7.568;2023-05-29T03:00:33;2.95;;;2.20;;
51475;SDS011;37554;50.362;7.568;2023-05-29T03:02:59;1.85;;;1.70;;
51475;SDS011;37554;50.362;7.568;2023-05-29T03:05:25;3.83;;;2.17;;
51475;SDS011;37554;50.362;7.568;2023-05-29T03:07:51;3.42;;;2.30;;
51475;SDS011;37554;50.362;7.568;2023-05-29T03:10:16;2.85;;;2.42;;
51475;SDS011;37554;50.362;7.568;2023-05-29T03:12:42;2.75;;;2.20;;
51475;SDS011;37554;50.362;7.568;2023-05-29T03:15:09;2.35;;;2.15;;
51475;SDS011;37554;50.362;7.568;2023-05-29T03:17:35;1.85;;;1.75;;
51475;SDS011;37554;50.362;7.568;2023-05-29T03:20:03;3.33;;;2.50;;
51475;SDS011;37554;50.362;7.568;2023-05-29T03:22:31;2.28;;;2.08;;
51475;SDS011;37554;50.362;7.568;2023-05-29T03:24:57;2.78;;;2.13;;
51475;SDS011;37554;50.362;7.568;2023-05-29T03:27:23;2.53;;;2.33;;
51475;SDS011;37554;50.362;7.568;2023-05-29T03:29:48;3.92;;;2.33;;
51475;SDS011;37554;50.362;7.568;2023-05-29T03:32:14;2.88;;;2.30;;
51475;SDS011;37554;50.362;7.568;2023-05-29T03:34:39;2.22;;;1.77;;
51475;SDS011;37554;50.362;7.568;2023-05-29T03:37:05;4.20;;;2.42;;
51475;SDS011;37554;50.362;7.568;2023-05-29T03:39:31;3.47;;;2.00;;
51475;SDS011;37554;50.362;7.568;2023-05-29T03:41:56;2.92;;;2.15;;
51475;SDS011;37554;50.362;7.568;2023-05-29T03:44:22;2.65;;;2.15;;
51475;SDS011;37554;50.362;7.568;2023-05-29T03:46:48;2.47;;;2.25;;
51475;SDS011;37554;50.362;7.568;2023-05-29T03:49:14;2.60;;;2.13;;
51475;SDS011;37554;50.362;7.568;2023-05-29T03:51:39;2.20;;;2.00;;
51475;SDS011;37554;50.362;7.568;2023-05-29T03:54:05;2.53;;;2.10;;
51475;SDS011;37554;50.362;7.568;2023-05-29T03:56:31;2.85;;;2.17;;
51475;SDS011;37554;50.362;7.568;2023-05-29T03:58:56;6.15;;;2.10;;
51475;SDS011;37554;50.362;7.568;2023-05-29T04:01:22;2.42;;;2.22;;
51475;SDS011;37554;50.362;7.568;2023-05-29T04:03:48;2.40;;;2.10;;
51475;SDS011;37554;50.362;7.568;2023-05-29T04:06:13;2.35;;;2.15;;
51475;SDS011;37554;50.362;7.568;2023-05-29T04:08:39;2.83;;;2.00;;
51475;SDS011;37554;50.362;7.568;2023-05-29T04:11:05;2.40;;;2.20;;
51475;SDS011;37554;50.362;7.568;2023-05-29T04:13:30;3.10;;;2.17;;
51475;SDS011;37554;50.362;7.568;2023-05-29T04:15:56;3.15;;;2.38;;
51475;SDS011;37554;50.362;7.568;2023-05-29T04:18:21;2.22;;;1.95;;
51475;SDS011;37554;50.362;7.568;2023-05-29T04:20:47;3.83;;;2.30;;
51475;SDS011;37554;50.362;7.568;2023-05-29T04:23:13;2.30;;;2.10;;
51475;SDS011;37554;50.362;7.568;2023-05-29T04:25:39;2.30;;;2.10;;
51475;SDS011;37554;50.362;7.568;2023-05-29T04:28:04;2.63;;;2.10;;
51475;SDS011;37554;50.362;7.568;2023-05-29T04:30:30;2.25;;;2.05;;
51475;SDS011;37554;50.362;7.568;2023-05-29T04:32:58;2.83;;;2.30;;
51475;SDS011;37554;50.362;7.568;2023-05-29T04:35:24;2.35;;;2.10;;
51475;SDS011;37554;50.362;7.568;2023-05-29T04:37:49;3.13;;;2.00;;
51475;SDS011;37554;50.362;7.568;2023-05-29T04:40:15;5.63;;;2.10;;
51475;SDS011;37554;50.362;7.568;2023-05-29T04:42:42;2.25;;;1.85;;
51475;SDS011;37554;50.362;7.568;2023-05-29T04:45:10;2.75;;;2.13;;
51475;SDS011;37554;50.362;7.568;2023-05-29T04:47:36;3.05;;;2.13;;
51475;SDS011;37554;50.362;7.568;2023-05-29T04:50:17;2.40;;;2.20;;
51475;SDS011;37554;50.362;7.568;2023-05-29T04:52:43;2.38;;;2.17;;
51475;SDS011;37554;50.362;7.568;2023-05-29T04:55:09;2.60;;;2.10;;
51475;SDS011;37554;50.362;7.568;2023-05-29T04:57:37;2.47;;;2.05;;
51475;SDS011;37554;50.362;7.568;2023-05-29T05:00:03;2.70;;;2.05;;
51475;SDS011;37554;50.362;7.568;2023-05-29T05:02:36;2.63;;;2.15;;
51475;SDS011;37554;50.362;7.568;2023-05-29T05:05:01;2.17;;;1.98;;
51475;SDS011;37554;50.362;7.568;2023-05-29T05:07:27;3.00;;;2.35;;
51475;SDS011;37554;50.362;7.568;2023-05-29T05:09:52;2.65;;;2.08;;
51475;SDS011;37554;50.362;7.568;2023-05-29T05:12:18;2.92;;;2.40;;
51475;SDS011;37554;50.362;7.568;2023-05-29T05:14:44;2.58;;;1.95;;
51475;SDS011;37554;50.362;7.568;2023-05-29T05:17:09;3.17;;;2.00;;
51475;SDS011;37554;50.362;7.568;2023-05-29T05:19:35;2.30;;;2.10;;
51475;SDS011;37554;50.362;7.568;2023-05-29T05:22:00;2.38;;;2.00;;
51475;SDS011;37554;50.362;7.568;2023-05-29T05:24:26;3.53;;;2.70;;
51475;SDS011;37554;50.362;7.568;2023-05-29T05:26:52;3.78;;;2.38;;
51475;SDS011;37554;50.362;7.568;2023-05-29T05:29:17;2.42;;;2.20;;
51475;SDS011;37554;50.362;7.568;2023-05-29T05:31:43;2.40;;;1.92;;
51475;SDS011;37554;50.362;7.568;2023-05-29T05:34:09;3.13;;;2.17;;
51475;SDS011;37554;50.362;7.568;2023-05-29T05:36:34;3.13;;;2.22;;
51475;SDS011;37554;50.362;7.568;2023-05-29T05:39:01;2.28;;;2.05;;
51475;SDS011;37554;50.362;7.568;2023-05-29T05:41:27;3.67;;;2.20;;
51475;SDS011;37554;50.362;7.568;2023-05-29T05:43:52;3.75;;;2.40;;
51475;SDS011;37554;50.362;7.568;2023-05-29T05:46:18;3.15;;;2.20;;
51475;SDS011;37554;50.362;7.568;2023-05-29T05:48:44;3.67;;;1.92;;
51475;SDS011;37554;50.362;7.568;2023-05-29T05:51:09;2.63;;;2.10;;
51475;SDS011;37554;50.362;7.568;2023-05-29T05:53:36;2.45;;;2.25;;
51475;SDS011;37554;50.362;7.568;2023-05-29T05:56:02;2.20;;;2.00;;
51475;SDS011;37554;50.362;7.568;2023-05-29T05:58:27;2.30;;;2.10;;
51475;SDS011;37554;50.362;7.568;2023-05-29T06:00:53;2.45;;;1.92;;
51475;SDS011;37554;50.362;7.568;2023-05-29T06:03:18;2.00;;;1.70;;
51475;SDS011;37554;50.362;7.568;2023-05-29T06:05:44;2.47;;;1.90;;
51475;SDS011;37554;50.362;7.568;2023-05-29T06:08:10;2.47;;;2.28;;
51475;SDS011;37554;50.362;7.568;2023-05-29T06:10:35;2.25;;;1.80;;
51475;SDS011;37554;50.362;7.568;2023-05-29T06:13:01;2.45;;;2.08;;
51475;SDS011;37554;50.362;7.568;2023-05-29T06:15:27;2.20;;;2.00;;
51475;SDS011;37554;50.362;7.568;2023-05-29T06:17:52;2.65;;;2.05;;
51475;SDS011;37554;50.362;7.568;2023-05-29T06:20:20;3.72;;;2.13;;
51475;SDS011;37554;50.362;7.568;2023-05-29T06:22:46;2.33;;;2.13;;
51475;SDS011;37554;50.362;7.568;2023-05-29T06:25:15;5.53;;;2.70;;
51475;SDS011;37554;50.362;7.568;2023-05-29T06:27:41;2.80;;;2.60;;
51475;SDS011;37554;50.362;7.568;2023-05-29T06:30:07;6.25;;;3.30;;
51475;SDS011;37554;50.362;7.568;2023-05-29T06:32:33;7.05;;;2.85;;
51475;SDS011;37554;50.362;7.568;2023-05-29T06:34:59;5.47;;;2.80;;
51475;SDS011;37554;50.362;7.568;2023-05-29T06:37:25;5.15;;;2.83;;
51475;SDS011;37554;50.362;7.568;2023-05-29T06:39:50;3.17;;;2.38;;
51475;SDS011;37554;50.362;7.568;2023-05-29T06:42:16;5.78;;;3.15;;
51475;SDS011;37554;50.362;7.568;2023-05-29T06:44:41;5.97;;;3.03;;
51475;SDS011;37554;50.362;7.568;2023-05-29T06:47:07;4.35;;;2.92;;
51475;SDS011;37554;50.362;7.568;2023-05-29T06:49:33;6.10;;;2.95;;
51475;SDS011;37554;50.362;7.568;2023-05-29T06:51:58;3.90;;;2.78;;
51475;SDS011;37554;50.362;7.568;2023-05-29T06:54:25;4.40;;;3.10;;
51475;SDS011;37554;50.362;7.568;2023-05-29T06:56:50;4.85;;;2.63;;
51475;SDS011;37554;50.362;7.568;2023-05-29T06:59:16;6.72;;;3.30;;
51475;SDS011;37554;50.362;7.568;2023-05-29T07:01:41;4.93;;;3.20;;
51475;SDS011;37554;50.362;7.568;2023-05-29T07:04:07;3.90;;;3.13;;
51475;SDS011;37554;50.362;7.568;2023-05-29T07:06:32;9.43;;;3.30;;
51475;SDS011;37554;50.362;7.568;2023-05-29T07:08:58;7.53;;;2.90;;
51475;SDS011;37554;50.362;7.568;2023-05-29T07:11:25;5.90;;;3.03;;
51475;SDS011;37554;50.362;7.568;2023-05-29T07:13:51;4.47;;;2.55;;
51475;SDS011;37554;50.362;7.568;2023-05-29T07:16:18;3.67;;;2.55;;
51475;SDS011;37554;50.362;7.568;2023-05-29T07:18:43;6.70;;;3.08;;
51475;SDS011;37554;50.362;7.568;2023-05-29T07:21:09;5.90;;;3.35;;
51475;SDS011;37554;50.362;7.568;2023-05-29T07:23:35;4.32;;;2.95;;
51475;SDS011;37554;50.362;7.568;2023-05-29T07:26:01;5.10;;;2.63;;
51475;SDS011;37554;50.362;7.568;2023-05-29T07:28:27;6.22;;;2.97;;
51475;SDS011;37554;50.362;7.568;2023-05-29T07:30:52;3.70;;;2.58;;
51475;SDS011;37554;50.362;7.568;2023-05-29T07:33:18;6.13;;;2.88;;
51475;SDS011;37554;50.362;7.568;2023-05-29T07:35:44;2.63;;;2.33;;
51475;SDS011;37554;50.362;7.568;2023-05-29T07:38:09;4.50;;;2.63;;
51475;SDS011;37554;50.362;7.568;2023-05-29T07:40:35;6.05;;;2.33;;
51475;SDS011;37554;50.362;7.568;2023-05-29T07:43:00;2.80;;;1.98;;
51475;SDS011;37554;50.362;7.568;2023-05-29T07:45:26;3.78;;;2.28;;
51475;SDS011;37554;50.362;7.568;2023-05-29T07:47:52;3.03;;;2.40;;
51475;SDS011;37554;50.362;7.568;2023-05-29T07:50:18;3.00;;;2.00;;
51475;SDS011;37554;50.362;7.568;2023-05-29T07:52:44;3.30;;;2.28;;
51475;SDS011;37554;50.362;7.568;2023-05-29T07:55:10;6.03;;;2.80;;
51475;SDS011;37554;50.362;7.568;2023-05-29T07:57:36;2.78;;;2.20;;
51475;SDS011;37554;50.362;7.568;2023-05-29T08:00:02;3.75;;;2.30;;
51475;SDS011;37554;50.362;7.568;2023-05-29T08:02:33;4.32;;;2.30;;
51475;SDS011;37554;50.362;7.568;2023-05-29T08:05:03;4.93;;;2.50;;
51475;SDS011;37554;50.362;7.568;2023-05-29T08:07:29;4.22;;;2.25;;
51475;SDS011;37554;50.362;7.568;2023-05-29T08:09:55;2.88;;;2.17;;
51475;SDS011;37554;50.362;7.568;2023-05-29T08:12:21;3.45;;;2.05;;
51475;SDS011;37554;50.362;7.568;2023-05-29T08:14:46;3.28;;;2.22;;
51475;SDS011;37554;50.362;7.568;2023-05-29T08:17:12;3.35;;;2.15;;
51475;SDS011;37554;50.362;7.568;2023-05-29T08:19:38;3.30;;;2.60;;
51475;SDS011;37554;50.362;7.568;2023-05-29T08:22:03;4.20;;;2.10;;
51475;SDS011;37554;50.362;7.568;2023-05-29T08:24:29;5.00;;;2.47;;
51475;SDS011;37554;50.362;7.568;2023-05-29T08:26:55;3.80;;;2.45;;
51475;SDS011;37554;50.362;7.568;2023-05-29T08:29:20;2.58;;;2.30;;
51475;SDS011;37554;50.362;7.568;2023-05-29T08:31:46;3.22;;;2.17;;
51475;SDS011;37554;50.362;7.568;2023-05-29T08:34:12;4.47;;;2.13;;
51475;SDS011;37554;50.362;7.568;2023-05-29T08:36:38;5.00;;;2.42;;
51475;SDS011;37554;50.362;7.568;2023-05-29T08:39:06;4.07;;;2.15;;
51475;SDS011;37554;50.362;7.568;2023-05-29T08:44:06;3.58;;;2.25;;
51475;SDS011;37554;50.362;7.568;2023-05-29T08:46:38;7.63;;;2.80;;
51475;SDS011;37554;50.362;7.568;2023-05-29T08:49:05;3.55;;;2.20;;
51475;SDS011;37554;50.362;7.568;2023-05-29T08:51:35;3.58;;;2.90;;
51475;SDS011;37554;50.362;7.568;2023-05-29T08:54:03;3.58;;;2.60;;
51475;SDS011;37554;50.362;7.568;2023-05-29T08:56:29;3.63;;;2.25;;
51475;SDS011;37554;50.362;7.568;2023-05-29T08:58:55;3.53;;;2.67;;
51475;SDS011;37554;50.362;7.568;2023-05-29T09:01:22;3.25;;;2.50;;
51475;SDS011;37554;50.362;7.568;2023-05-29T09:03:50;3.40;;;2.50;;
51475;SDS011;37554;50.362;7.568;2023-05-29T09:06:15;3.97;;;2.65;;
51475;SDS011;37554;50.362;7.568;2023-05-29T09:08:43;4.47;;;3.00;;
51475;SDS011;37554;50.362;7.568;2023-05-29T09:11:09;4.38;;;2.70;;
51475;SDS011;37554;50.362;7.568;2023-05-29T09:13:35;3.90;;;2.50;;
51475;SDS011;37554;50.362;7.568;2023-05-29T09:16:00;3.47;;;2.75;;
51475;SDS011;37554;50.362;7.568;2023-05-29T09:18:29;4.65;;;2.70;;
51475;SDS011;37554;50.362;7.568;2023-05-29T09:20:56;4.93;;;2.80;;
51475;SDS011;37554;50.362;7.568;2023-05-29T09:23:22;3.20;;;2.58;;
51475;SDS011;37554;50.362;7.568;2023-05-29T09:25:51;4.30;;;2.65;;
51475;SDS011;37554;50.362;7.568;2023-05-29T09:28:18;3.75;;;2.70;;
51475;SDS011;37554;50.362;7.568;2023-05-29T09:30:46;5.25;;;2.85;;
51475;SDS011;37554;50.362;7.568;2023-05-29T09:33:12;3.40;;;2.45;;
51475;SDS011;37554;50.362;7.568;2023-05-29T09:38:12;4.15;;;2.47;;
51475;SDS011;37554;50.362;7.568;2023-05-29T09:40:40;5.40;;;2.53;;
51475;SDS011;37554;50.362;7.568;2023-05-29T09:43:10;4.80;;;2.67;;
51475;SDS011;37554;50.362;7.568;2023-05-29T09:45:46;4.88;;;2.97;;
51475;SDS011;37554;50.362;7.568;2023-05-29T09:48:14;5.18;;;2.70;;
51475;SDS011;37554;50.362;7.568;2023-05-29T09:50:47;5.82;;;2.85;;
51475;SDS011;37554;50.362;7.568;2023-05-29T09:53:22;4.75;;;2.60;;
51475;SDS011;37554;50.362;7.568;2023-05-29T09:55:52;5.45;;;2.97;;
51475;SDS011;37554;50.362;7.568;2023-05-29T09:58:21;4.28;;;2.65;;
51475;SDS011;37554;50.362;7.568;2023-05-29T10:00:49;5.50;;;3.08;;
51475;SDS011;37554;50.362;7.568;2023-05-29T10:03:16;7.47;;;3.35;;
51475;SDS011;37554;50.362;7.568;2023-05-29T10:05:46;5.45;;;2.40;;
51475;SDS011;37554;50.362;7.568;2023-05-29T10:08:15;4.75;;;2.90;;
51475;SDS011;37554;50.362;7.568;2023-05-29T10:10:44;4.63;;;3.00;;
51475;SDS011;37554;50.362;7.568;2023-05-29T10:13:31;4.47;;;2.75;;
51475;SDS011;37554;50.362;7.568;2023-05-29T10:16:03;6.25;;;2.65;;
51475;SDS011;37554;50.362;7.568;2023-05-29T10:18:41;4.43;;;3.10;;
51475;SDS011;37554;50.362;7.568;2023-05-29T10:21:11;4.95;;;2.65;;
51475;SDS011;37554;50.362;7.568;2023-05-29T10:23:37;4.95;;;2.63;;
51475;SDS011;37554;50.362;7.568;2023-05-29T10:26:15;7.65;;;2.95;;
51475;SDS011;37554;50.362;7.568;2023-05-29T10:28:47;3.92;;;2.55;;
51475;SDS011;37554;50.362;7.568;2023-05-29T10:31:43;5.07;;;2.92;;
51475;SDS011;37554;50.362;7.568;2023-05-29T10:37:18;4.15;;;2.85;;
51475;SDS011;37554;50.362;7.568;2023-05-29T10:39:42;6.45;;;2.88;;
51475;SDS011;37554;50.362;7.568;2023-05-29T10:45:47;5.18;;;2.40;;
51475;SDS011;37554;50.362;7.568;2023-05-29T10:50:47;5.15;;;2.70;;
51475;SDS011;37554;50.362;7.568;2023-05-29T10:55:42;3.88;;;2.47;;
51475;SDS011;37554;50.362;7.568;2023-05-29T10:58:13;5.75;;;2.80;;
51475;SDS011;37554;50.362;7.568;2023-05-29T11:00:52;5.95;;;2.53;;
51475;SDS011;37554;50.362;7.568;2023-05-29T11:03:20;4.45;;;2.80;;
51475;SDS011;37554;50.362;7.568;2023-05-29T11:06:00;7.35;;;2.50;;
51475;SDS011;37554;50.362;7.568;2023-05-29T11:11:11;4.38;;;3.03;;
51475;SDS011;37554;50.362;7.568;2023-05-29T11:13:38;8.13;;;2.88;;
51475;SDS011;37554;50.362;7.568;2023-05-29T11:16:13;8.13;;;3.00;;
51475;SDS011;37554;50.362;7.568;2023-05-29T11:18:46;7.00;;;2.75;;
51475;SDS011;37554;50.362;7.568;2023-05-29T11:21:34;7.10;;;2.80;;
51475;SDS011;37554;50.362;7.568;2023-05-29T11:24:03;8.80;;;2.80;;
51475;SDS011;37554;50.362;7.568;2023-05-29T11:26:31;7.53;;;2.72;;
51475;SDS011;37554;50.362;7.568;2023-05-29T11:29:00;7.43;;;2.90;;
51475;SDS011;37554;50.362;7.568;2023-05-29T11:31:33;4.82;;;2.85;;
51475;SDS011;37554;50.362;7.568;2023-05-29T11:34:00;5.63;;;3.00;;
51475;SDS011;37554;50.362;7.568;2023-05-29T11:36:30;3.67;;;2.67;;
51475;SDS011;37554;50.362;7.568;2023-05-29T11:38:59;3.58;;;2.60;;
51475;SDS011;37554;50.362;7.568;2023-05-29T11:41:25;3.95;;;2.60;;
51475;SDS011;37554;50.362;7.568;2023-05-29T11:44:01;6.20;;;2.67;;
51475;SDS011;37554;50.362;7.568;2023-05-29T11:46:28;5.03;;;2.55;;
51475;SDS011;37554;50.362;7.568;2023-05-29T11:48:58;3.85;;;2.47;;
51475;SDS011;37554;50.362;7.568;2023-05-29T11:51:26;6.07;;;2.53;;
51475;SDS011;37554;50.362;7.568;2023-05-29T11:53:52;9.15;;;3.05;;
51475;SDS011;37554;50.362;7.568;2023-05-29T11:56:23;6.10;;;2.58;;
51475;SDS011;37554;50.362;7.568;2023-05-29T11:58:50;5.25;;;2.60;;
51475;SDS011;37554;50.362;7.568;2023-05-29T12:01:20;5.57;;;2.58;;
51475;SDS011;37554;50.362;7.568;2023-05-29T12:03:46;5.47;;;3.08;;
51475;SDS011;37554;50.362;7.568;2023-05-29T12:06:11;6.22;;;2.75;;
51475;SDS011;37554;50.362;7.568;2023-05-29T12:08:38;6.00;;;3.13;;
51475;SDS011;37554;50.362;7.568;2023-05-29T12:11:04;4.20;;;2.60;;
51475;SDS011;37554;50.362;7.568;2023-05-29T12:13:30;5.18;;;3.00;;
51475;SDS011;37554;50.362;7.568;2023-05-29T12:15:56;5.32;;;2.90;;
51475;SDS011;37554;50.362;7.568;2023-05-29T12:18:25;4.53;;;2.50;;
51475;SDS011;37554;50.362;7.568;2023-05-29T12:20:56;6.72;;;2.33;;
51475;SDS011;37554;50.362;7.568;2023-05-29T12:23:23;3.15;;;2.30;;
51475;SDS011;37554;50.362;7.568;2023-05-29T12:25:50;3.25;;;2.35;;
51475;SDS011;37554;50.362;7.568;2023-05-29T12:28:17;8.88;;;2.70;;
51475;SDS011;37554;50.362;7.568;2023-05-29T12:30:44;4.88;;;2.15;;
51475;SDS011;37554;50.362;7.568;2023-05-29T12:33:30;4.53;;;2.40;;
51475;SDS011;37554;50.362;7.568;2023-05-29T12:38:29;5.15;;;2.58;;
51475;SDS011;37554;50.362;7.568;2023-05-29T12:40:55;6.25;;;2.45;;
51475;SDS011;37554;50.362;7.568;2023-05-29T12:43:21;6.22;;;2.40;;
51475;SDS011;37554;50.362;7.568;2023-05-29T12:45:53;3.53;;;2.65;;
51475;SDS011;37554;50.362;7.568;2023-05-29T12:48:25;5.63;;;2.50;;
51475;SDS011;37554;50.362;7.568;2023-05-29T12:50:52;5.25;;;2.50;;
51475;SDS011;37554;50.362;7.568;2023-05-29T12:53:18;3.60;;;2.20;;
51475;SDS011;37554;50.362;7.568;2023-05-29T12:55:44;3.70;;;2.33;;
51475;SDS011;37554;50.362;7.568;2023-05-29T12:58:12;3.90;;;2.10;;
51475;SDS011;37554;50.362;7.568;2023-05-29T13:00:40;4.43;;;2.03;;
51475;SDS011;37554;50.362;7.568;2023-05-29T13:03:07;5.03;;;1.98;;
51475;SDS011;37554;50.362;7.568;2023-05-29T13:05:34;3.80;;;2.00;;
51475;SDS011;37554;50.362;7.568;2023-05-29T13:08:00;4.53;;;1.95;;
51475;SDS011;37554;50.362;7.568;2023-05-29T13:10:26;2.65;;;1.92;;
51475;SDS011;37554;50.362;7.568;2023-05-29T13:12:52;2.85;;;1.85;;
51475;SDS011;37554;50.362;7.568;2023-05-29T13:15:20;3.85;;;2.22;;
51475;SDS011;37554;50.362;7.568;2023-05-29T13:17:47;3.53;;;2.00;;
51475;SDS011;37554;50.362;7.568;2023-05-29T13:20:13;2.85;;;1.70;;
51475;SDS011;37554;50.362;7.568;2023-05-29T13:22:40;3.08;;;2.05;;
51475;SDS011;37554;50.362;7.568;2023-05-29T13:25:07;3.63;;;2.25;;
51475;SDS011;37554;50.362;7.568;2023-05-29T13:27:37;4.13;;;1.80;;
51475;SDS011;37554;50.362;7.568;2023-05-29T13:30:04;3.50;;;1.88;;
51475;SDS011;37554;50.362;7.568;2023-05-29T13:32:31;4.50;;;2.33;;
51475;SDS011;37554;50.362;7.568;2023-05-29T13:34:57;3.22;;;1.98;;
51475;SDS011;37554;50.362;7.568;2023-05-29T13:37:23;3.15;;;2.15;;
51475;SDS011;37554;50.362;7.568;2023-05-29T13:39:48;5.38;;;2.25;;
51475;SDS011;37554;50.362;7.568;2023-05-29T13:42:14;3.78;;;2.00;;
51475;SDS011;37554;50.362;7.568;2023-05-29T13:44:40;3.97;;;2.28;;
51475;SDS011;37554;50.362;7.568;2023-05-29T13:47:06;3.75;;;1.98;;
51475;SDS011;37554;50.362;7.568;2023-05-29T13:49:33;3.60;;;1.90;;
51475;SDS011;37554;50.362;7.568;2023-05-29T13:51:59;6.03;;;2.10;;
51475;SDS011;37554;50.362;7.568;2023-05-29T13:54:25;3.58;;;2.33;;
51475;SDS011;37554;50.362;7.568;2023-05-29T13:56:52;5.75;;;2.30;;
51475;SDS011;37554;50.362;7.568;2023-05-29T13:59:18;5.50;;;2.00;;
51475;SDS011;37554;50.362;7.568;2023-05-29T14:01:44;6.78;;;2.08;;
51475;SDS011;37554;50.362;7.568;2023-05-29T14:04:10;7.57;;;2.22;;
51475;SDS011;37554;50.362;7.568;2023-05-29T14:06:36;4.63;;;2.05;;
51475;SDS011;37554;50.362;7.568;2023-05-29T14:09:02;4.93;;;2.15;;
51475;SDS011;37554;50.362;7.568;2023-05-29T14:11:28;3.42;;;1.92;;
51475;SDS011;37554;50.362;7.568;2023-05-29T14:13:54;4.30;;;2.22;;
51475;SDS011;37554;50.362;7.568;2023-05-29T14:16:19;6.18;;;2.42;;
51475;SDS011;37554;50.362;7.568;2023-05-29T14:18:45;6.63;;;2.42;;
51475;SDS011;37554;50.362;7.568;2023-05-29T14:21:13;5.28;;;2.28;;
51475;SDS011;37554;50.362;7.568;2023-05-29T14:23:39;3.05;;;1.92;;
51475;SDS011;37554;50.362;7.568;2023-05-29T14:26:04;3.25;;;1.95;;
51475;SDS011;37554;50.362;7.568;2023-05-29T14:28:30;3.58;;;2.05;;
51475;SDS011;37554;50.362;7.568;2023-05-29T14:30:56;3.75;;;1.90;;
51475;SDS011;37554;50.362;7.568;2023-05-29T14:33:21;3.88;;;1.77;;
51475;SDS011;37554;50.362;7.568;2023-05-29T14:35:47;3.42;;;1.75;;
51475;SDS011;37554;50.362;7.568;2023-05-29T14:38:13;3.65;;;1.88;;
51475;SDS011;37554;50.362;7.568;2023-05-29T14:40:38;3.63;;;2.10;;
51475;SDS011;37554;50.362;7.568;2023-05-29T14:43:04;4.15;;;2.10;;
51475;SDS011;37554;50.362;7.568;2023-05-29T14:45:30;3.17;;;1.80;;
51475;SDS011;37554;50.362;7.568;2023-05-29T14:47:56;4.55;;;2.00;;
51475;SDS011;37554;50.362;7.568;2023-05-29T14:50:22;3.03;;;1.77;;
51475;SDS011;37554;50.362;7.568;2023-05-29T14:52:47;3.88;;;1.90;;
51475;SDS011;37554;50.362;7.568;2023-05-29T14:55:13;3.45;;;1.67;;
51475;SDS011;37554;50.362;7.568;2023-05-29T14:57:41;6.57;;;2.13;;
51475;SDS011;37554;50.362;7.568;2023-05-29T15:00:07;3.25;;;1.67;;
51475;SDS011;37554;50.362;7.568;2023-05-29T15:02:34;3.60;;;2.30;;
51475;SDS011;37554;50.362;7.568;2023-05-29T15:04:59;4.15;;;1.77;;
51475;SDS011;37554;50.362;7.568;2023-05-29T15:07:25;2.42;;;1.80;;
51475;SDS011;37554;50.362;7.568;2023-05-29T15:09:51;2.20;;;1.63;;
51475;SDS011;37554;50.362;7.568;2023-05-29T15:12:17;2.80;;;1.88;;
51475;SDS011;37554;50.362;7.568;2023-05-29T15:14:42;4.68;;;1.67;;
51475;SDS011;37554;50.362;7.568;2023-05-29T15:17:08;3.38;;;1.80;;
51475;SDS011;37554;50.362;7.568;2023-05-29T15:19:34;3.83;;;2.00;;